createdAt,value
2017-06-01T00:01:53.904Z,2.23
2017-06-01T00:04:21.058Z,1.68
2017-06-01T00:06:48.136Z,2.13
2017-06-01T00:09:23.552Z,1.70
2017-06-01T00:11:50.856Z,1.70
2017-06-01T00:14:17.909Z,1.97
2017-06-01T00:21:48.420Z,4.18
2017-06-01T00:26:47.557Z,2.25
2017-06-01T00:31:50.166Z,2.33
2017-06-01T00:44:26.998Z,2.38
2017-06-01T00:46:59.660Z,1.95
2017-06-01T00:49:26.766Z,2.42
2017-06-01T00:51:57.632Z,2.28
2017-06-01T00:54:24.989Z,1.88
2017-06-01T00:59:30.362Z,2.18
2017-06-01T01:01:57.158Z,2.05
2017-06-01T01:04:24.786Z,2.25
2017-06-01T01:06:54.429Z,2.20
2017-06-01T01:09:22.896Z,2.50
2017-06-01T01:11:51.407Z,2.38
2017-06-01T01:14:20.750Z,2.70
2017-06-01T01:19:21.511Z,1.90
2017-06-01T01:21:51.211Z,3.27
2017-06-01T01:24:19.693Z,2.50
2017-06-01T01:26:48.151Z,2.45
2017-06-01T01:29:17.416Z,3.22
2017-06-01T01:31:47.981Z,3.12
2017-06-01T01:34:19.841Z,2.37
2017-06-01T01:36:46.882Z,2.50
2017-06-01T01:39:13.737Z,2.22
2017-06-01T01:41:41.053Z,2.73
2017-06-01T01:44:08.229Z,2.20
2017-06-01T01:46:35.341Z,1.73
2017-06-01T01:49:06.018Z,2.93
2017-06-01T01:54:04.099Z,3.00
2017-06-01T01:56:32.624Z,2.90
2017-06-01T02:01:31.993Z,3.58
2017-06-01T02:04:00.555Z,2.93
2017-06-01T02:06:30.857Z,2.97
2017-06-01T02:08:58.317Z,3.15
2017-06-01T02:11:26.918Z,3.37
2017-06-01T02:13:53.729Z,3.17
2017-06-01T02:16:23.197Z,3.90
2017-06-01T02:18:50.584Z,3.33
2017-06-01T02:21:19.732Z,4.50
2017-06-01T02:23:51.930Z,3.80
2017-06-01T02:26:19.385Z,3.70
2017-06-01T02:31:21.049Z,4.00
2017-06-01T02:36:23.521Z,3.32
2017-06-01T02:38:53.809Z,3.55
2017-06-01T02:41:25.744Z,4.22
2017-06-01T02:48:59.763Z,3.35
2017-06-01T02:51:28.902Z,3.50
2017-06-01T02:53:57.363Z,3.13
2017-06-01T02:56:25.573Z,3.60
2017-06-01T02:58:58.316Z,3.92
2017-06-01T03:01:26.605Z,3.63
2017-06-01T03:03:54.362Z,3.52
2017-06-01T03:06:23.837Z,3.40
2017-06-01T03:08:51.661Z,3.77
2017-06-01T03:11:32.003Z,3.12
2017-06-01T03:14:00.951Z,3.42
2017-06-01T03:18:59.177Z,5.02
2017-06-01T03:21:30.220Z,4.95
2017-06-01T03:26:28.307Z,4.05
2017-06-01T03:28:56.756Z,3.97
2017-06-01T03:31:25.257Z,3.65
2017-06-01T03:33:55.208Z,5.13
2017-06-01T03:38:56.473Z,4.25
2017-06-01T03:41:25.715Z,4.92
2017-06-01T03:43:58.182Z,4.30
2017-06-01T03:46:26.768Z,5.50
2017-06-01T03:49:03.881Z,5.12
2017-06-01T03:56:48.334Z,4.72
2017-06-01T03:59:17.959Z,3.28
2017-06-01T04:09:41.870Z,3.05
2017-06-01T04:12:12.841Z,3.25
2017-06-01T04:14:42.452Z,3.83
2017-06-01T04:19:52.261Z,4.70
2017-06-01T04:22:20.885Z,3.82
2017-06-01T04:27:24.983Z,5.15
2017-06-01T04:29:52.705Z,3.95
2017-06-01T04:32:24.328Z,3.03
2017-06-01T04:34:54.806Z,3.75
2017-06-01T04:37:21.744Z,2.93
2017-06-01T04:39:59.078Z,3.87
2017-06-01T04:42:25.883Z,2.70
2017-06-01T04:44:52.671Z,3.60
2017-06-01T04:50:07.745Z,3.07
2017-06-01T04:52:40.365Z,2.90
2017-06-01T04:55:09.286Z,3.45
2017-06-01T05:00:08.231Z,2.68
2017-06-01T05:05:06.257Z,2.75
2017-06-01T05:07:35.038Z,2.68
2017-06-01T05:12:36.683Z,3.03
2017-06-01T05:15:10.505Z,3.43
2017-06-01T05:17:40.236Z,3.53
2017-06-01T05:20:08.797Z,2.55
2017-06-01T05:25:09.025Z,3.48
2017-06-01T05:30:23.397Z,2.50
2017-06-01T05:38:05.758Z,3.35
2017-06-01T05:40:32.900Z,2.48
2017-06-01T05:43:01.241Z,2.72
2017-06-01T05:48:00.933Z,2.55
2017-06-01T05:50:36.598Z,2.22
2017-06-01T05:53:10.686Z,3.18
2017-06-01T05:55:38.561Z,2.18
2017-06-01T05:58:06.086Z,3.28
2017-06-01T06:03:18.930Z,2.20
2017-06-01T06:05:46.039Z,2.93
2017-06-01T06:08:13.344Z,2.27
2017-06-01T06:10:40.870Z,2.23
2017-06-01T06:13:07.700Z,2.50
2017-06-01T06:15:35.295Z,3.52
2017-06-01T06:18:02.341Z,2.40
2017-06-01T06:20:29.520Z,2.30
2017-06-01T06:22:56.312Z,2.75
2017-06-01T06:25:23.438Z,2.55
2017-06-01T06:27:51.089Z,2.27
2017-06-01T06:30:17.918Z,2.15
2017-06-01T06:32:53.518Z,2.65
2017-06-01T06:35:26.355Z,2.48
2017-06-01T06:37:54.477Z,2.50
2017-06-01T06:40:21.340Z,3.77
2017-06-01T06:45:22.955Z,2.22
2017-06-01T06:47:49.956Z,2.00
2017-06-01T06:50:23.941Z,2.84
2017-06-01T06:52:58.115Z,1.62
2017-06-01T06:55:28.093Z,2.28
2017-06-01T06:57:55.306Z,1.74
2017-06-01T07:00:22.677Z,1.40
2017-06-01T07:02:50.098Z,1.76
2017-06-01T07:05:17.816Z,2.10
2017-06-01T07:07:44.655Z,2.32
2017-06-01T07:10:18.351Z,2.40
2017-06-01T07:12:45.155Z,2.62
2017-06-01T07:15:20.093Z,1.96
2017-06-01T07:20:20.039Z,2.20
2017-06-01T07:22:53.277Z,2.88
2017-06-01T07:25:21.234Z,2.86
2017-06-01T07:27:54.626Z,3.14
2017-06-01T07:30:22.773Z,3.12
2017-06-01T07:37:57.200Z,3.10
2017-06-01T07:40:25.768Z,3.12
2017-06-01T07:42:52.973Z,2.36
2017-06-01T07:45:24.029Z,2.38
2017-06-01T07:47:51.733Z,2.20
2017-06-01T07:52:57.628Z,3.06
2017-06-01T08:03:06.712Z,2.00
2017-06-01T08:05:34.498Z,2.56
2017-06-01T08:08:02.719Z,1.76
2017-06-01T08:53:36.792Z,3.16
2017-06-01T08:56:24.588Z,3.56
2017-06-01T11:59:16.659Z,3.50
2017-06-01T20:12:28.466Z,4.00
2017-06-01T20:23:11.705Z,3.62
